createdAt,value
2022-09-12T00:00:00.389Z,9.2
2022-09-12T00:01:04.593Z,9.2
2022-09-12T00:02:00.270Z,9.2
2022-09-12T00:03:00.239Z,9.2
2022-09-12T00:04:00.508Z,9.7
2022-09-12T00:05:00.225Z,9.7
2022-09-12T00:06:00.383Z,9.7
2022-09-12T00:07:00.240Z,9.7
2022-09-12T00:08:00.298Z,9.7
2022-09-12T00:09:03.892Z,9.6
2022-09-12T00:10:00.264Z,9.6
2022-09-12T00:11:05.009Z,9.6
2022-09-12T00:12:00.356Z,9.6
2022-09-12T00:13:00.222Z,9.6
2022-09-12T00:14:00.746Z,9.5
2022-09-12T00:15:00.312Z,9.5
2022-09-12T00:16:00.313Z,9.5
2022-09-12T00:17:00.765Z,9.5
2022-09-12T00:18:00.321Z,9.5
2022-09-12T00:19:01.317Z,9.0
2022-09-12T00:20:00.974Z,9.0
2022-09-12T00:21:03.053Z,9.0
2022-09-12T00:22:00.245Z,9.0
2022-09-12T00:23:00.413Z,9.0
2022-09-12T00:24:00.513Z,9.3
2022-09-12T00:25:00.524Z,9.3
2022-09-12T00:26:04.846Z,9.3
2022-09-12T00:27:00.220Z,9.3
2022-09-12T00:28:00.340Z,9.3
2022-09-12T00:29:00.253Z,9.2
2022-09-12T00:30:00.220Z,9.2
2022-09-12T00:31:08.357Z,9.2
2022-09-12T00:32:00.451Z,9.2
2022-09-12T00:33:00.225Z,9.2
2022-09-12T00:34:00.267Z,8.8
2022-09-12T00:35:00.286Z,8.8
2022-09-12T00:36:04.431Z,8.8
2022-09-12T00:37:00.312Z,8.8
2022-09-12T00:38:00.236Z,8.8
2022-09-12T00:39:00.260Z,7.9
2022-09-12T00:40:00.411Z,7.9
2022-09-12T00:41:00.284Z,7.9
2022-09-12T00:42:00.387Z,7.9
2022-09-12T00:43:00.392Z,7.9
2022-09-12T00:44:13.393Z,7.7
2022-09-12T00:45:00.262Z,7.7
2022-09-12T00:46:05.931Z,7.7
2022-09-12T00:47:05.602Z,7.7
2022-09-12T00:48:02.927Z,7.7
2022-09-12T00:49:04.946Z,7.5
2022-09-12T00:50:07.714Z,7.5
2022-09-12T00:51:00.975Z,7.5
2022-09-12T00:52:08.794Z,7.5
2022-09-12T00:53:05.301Z,7.5
2022-09-12T00:54:05.204Z,7.3
2022-09-12T00:55:17.718Z,7.3
2022-09-12T00:56:00.657Z,7.3
2022-09-12T00:57:05.547Z,7.3
2022-09-12T00:58:08.295Z,7.3
2022-09-12T00:59:05.422Z,7.3
2022-09-12T01:00:09.255Z,7.3
2022-09-12T01:01:00.507Z,7.3
2022-09-12T01:02:00.430Z,7.3
2022-09-12T01:03:04.264Z,7.3
2022-09-12T01:04:00.988Z,6.9
2022-09-12T01:05:00.365Z,6.9
2022-09-12T01:06:10.177Z,6.9
2022-09-12T01:07:03.586Z,6.9
2022-09-12T01:08:02.436Z,6.9
2022-09-12T01:09:00.433Z,6.8
2022-09-12T01:10:00.359Z,6.8
2022-09-12T01:11:00.622Z,6.8
2022-09-12T01:12:01.381Z,6.8
2022-09-12T01:13:02.244Z,6.8
2022-09-12T01:14:00.327Z,6.8
2022-09-12T01:15:00.239Z,6.8
2022-09-12T01:16:03.435Z,6.8
2022-09-12T01:17:00.564Z,6.8
2022-09-12T01:18:10.538Z,6.8
2022-09-12T01:19:20.127Z,6.6
2022-09-12T01:20:11.180Z,6.6
2022-09-12T01:21:10.176Z,6.6
2022-09-12T01:22:04.491Z,6.6
2022-09-12T01:23:20.157Z,6.6
2022-09-12T01:24:10.175Z,6.8
2022-09-12T01:25:10.171Z,6.8
2022-09-12T01:26:17.905Z,6.8
2022-09-12T01:27:10.182Z,6.8
2022-09-12T01:28:20.131Z,6.8
2022-09-12T01:29:20.131Z,6.8
2022-09-12T01:30:17.647Z,6.8
2022-09-12T01:31:07.428Z,6.8
2022-09-12T01:32:20.224Z,6.8
2022-09-12T01:33:11.175Z,6.8
2022-09-12T01:34:17.658Z,6.8
2022-09-12T01:35:17.879Z,6.8
2022-09-12T01:36:18.123Z,6.8
2022-09-12T01:37:07.025Z,6.8
2022-09-12T01:38:11.027Z,6.8
2022-09-12T01:39:05.103Z,6.7
2022-09-12T01:40:08.337Z,6.7
2022-09-12T01:41:13.474Z,6.7
2022-09-12T01:42:10.405Z,6.7
2022-09-12T01:43:16.948Z,6.7
2022-09-12T01:44:16.611Z,6.8
2022-09-12T01:45:09.862Z,6.8
2022-09-12T01:46:20.132Z,6.8
2022-09-12T01:47:13.355Z,6.8
2022-09-12T01:48:15.474Z,6.8
2022-09-12T01:49:11.106Z,6.7
2022-09-12T01:50:03.749Z,6.7
2022-09-12T01:51:20.125Z,6.7
2022-09-12T01:52:08.644Z,6.7
2022-09-12T01:53:05.940Z,6.7
2022-09-12T01:54:07.975Z,6.7
2022-09-12T01:55:20.160Z,6.7
2022-09-12T01:56:08.215Z,6.7
2022-09-12T01:57:05.701Z,6.7
2022-09-12T01:58:05.507Z,6.7
2022-09-12T01:59:04.271Z,6.9
2022-09-12T02:00:05.161Z,6.9
2022-09-12T02:01:05.850Z,6.9
2022-09-12T02:02:05.945Z,6.9
2022-09-12T02:03:08.152Z,6.9
2022-09-12T02:04:08.886Z,6.3
2022-09-12T02:05:07.188Z,6.3
2022-09-12T02:06:06.302Z,6.3
2022-09-12T02:07:10.046Z,6.3
2022-09-12T02:08:08.332Z,6.3
2022-09-12T02:09:07.951Z,6.8
2022-09-12T02:10:06.973Z,6.8
2022-09-12T02:11:08.121Z,6.8
2022-09-12T02:12:01.970Z,6.8
2022-09-12T02:13:12.102Z,6.8
2022-09-12T02:14:05.907Z,6.3
2022-09-12T02:15:03.863Z,6.3
2022-09-12T02:16:07.562Z,6.3
2022-09-12T02:17:08.503Z,6.3
2022-09-12T02:18:04.265Z,6.3
2022-09-12T02:19:08.564Z,6.4
2022-09-12T02:20:05.430Z,6.4
2022-09-12T02:21:04.352Z,6.4
2022-09-12T02:22:03.398Z,6.4
2022-09-12T02:23:02.430Z,6.4
2022-09-12T02:24:04.145Z,6.4
2022-09-12T02:25:02.386Z,6.4
2022-09-12T02:26:05.304Z,6.4
2022-09-12T02:27:08.993Z,6.4
2022-09-12T02:28:05.838Z,6.4
2022-09-12T02:29:00.893Z,6.4
2022-09-12T02:30:00.552Z,6.4
2022-09-12T02:31:12.443Z,6.4
2022-09-12T02:32:06.569Z,6.4
2022-09-12T02:33:11.162Z,6.4
2022-09-12T02:34:10.335Z,6.9
2022-09-12T02:35:06.231Z,6.9
2022-09-12T02:36:20.131Z,6.9
2022-09-12T02:37:11.155Z,6.9
2022-09-12T02:38:07.543Z,6.9
2022-09-12T02:39:00.472Z,6.4
2022-09-12T02:40:01.247Z,6.4
2022-09-12T02:41:00.490Z,6.4
2022-09-12T02:42:01.872Z,6.4
2022-09-12T02:43:02.353Z,6.4
2022-09-12T02:44:01.228Z,6.7
2022-09-12T02:45:00.888Z,6.7
2022-09-12T02:46:00.296Z,6.7
2022-09-12T02:47:07.534Z,6.7
2022-09-12T02:48:13.686Z,6.7
2022-09-12T02:49:00.298Z,6.6
2022-09-12T02:50:00.465Z,6.6
2022-09-12T02:51:01.093Z,6.6
2022-09-12T02:52:01.278Z,6.6
2022-09-12T02:53:01.107Z,6.6
2022-09-12T02:54:00.727Z,6.7
2022-09-12T02:55:01.443Z,6.7
2022-09-12T02:56:00.423Z,6.7
2022-09-12T02:57:00.240Z,6.7
2022-09-12T02:58:03.201Z,6.7
2022-09-12T02:59:06.030Z,6.7
2022-09-12T03:00:00.766Z,6.7
2022-09-12T03:01:11.146Z,6.7
2022-09-12T03:02:15.906Z,6.7
2022-09-12T03:03:12.164Z,6.7
2022-09-12T03:04:20.128Z,7.0
2022-09-12T03:05:01.224Z,7.0
2022-09-12T03:06:12.746Z,7.0
2022-09-12T03:07:13.322Z,7.0
2022-09-12T03:08:16.104Z,7.0
2022-09-12T03:09:14.623Z,6.5
2022-09-12T03:10:13.995Z,6.5
2022-09-12T03:11:12.665Z,6.5
2022-09-12T03:12:18.188Z,6.5
2022-09-12T03:13:16.724Z,6.5
2022-09-12T03:14:10.184Z,7.2
2022-09-12T03:15:13.421Z,7.2
2022-09-12T03:16:10.053Z,7.2
2022-09-12T03:17:08.987Z,7.2
2022-09-12T03:18:20.146Z,7.2
2022-09-12T03:19:20.128Z,6.8
2022-09-12T03:20:13.898Z,6.8
2022-09-12T03:21:10.179Z,6.8
2022-09-12T03:22:12.100Z,6.8
2022-09-12T03:23:08.135Z,6.8
2022-09-12T03:24:11.215Z,6.9
2022-09-12T03:25:11.193Z,6.9
2022-09-12T03:26:06.018Z,6.9
2022-09-12T03:27:20.143Z,6.9
2022-09-12T03:28:06.649Z,6.9
2022-09-12T03:29:02.337Z,6.6
2022-09-12T03:30:02.203Z,6.6
2022-09-12T03:31:11.540Z,6.6
2022-09-12T03:32:00.347Z,6.6
2022-09-12T03:33:00.217Z,6.6
2022-09-12T03:34:00.359Z,6.7
2022-09-12T03:35:00.238Z,6.7
2022-09-12T03:36:00.478Z,6.7
2022-09-12T03:37:00.236Z,6.7
2022-09-12T03:38:00.254Z,6.7
2022-09-12T03:39:00.226Z,7.6
2022-09-12T03:40:00.377Z,7.6
2022-09-12T03:41:00.232Z,7.6
2022-09-12T03:42:00.258Z,7.6
2022-09-12T03:43:00.268Z,7.6
2022-09-12T03:44:00.884Z,6.7
2022-09-12T03:45:00.488Z,6.7
2022-09-12T03:46:00.430Z,6.7
2022-09-12T03:47:00.222Z,6.7
2022-09-12T03:48:00.443Z,6.7
2022-09-12T03:49:00.242Z,6.6
2022-09-12T03:50:00.755Z,6.6
2022-09-12T03:51:03.009Z,6.6
2022-09-12T03:52:00.304Z,6.6
2022-09-12T03:53:01.212Z,6.6
2022-09-12T03:54:00.234Z,6.7
2022-09-12T03:55:00.367Z,6.7
2022-09-12T03:56:05.641Z,6.7
2022-09-12T03:57:00.230Z,6.7
2022-09-12T03:58:00.264Z,6.7
2022-09-12T03:59:00.319Z,6.5
2022-09-12T04:00:00.243Z,6.5
2022-09-12T04:01:00.309Z,6.5
2022-09-12T04:02:00.301Z,6.5
2022-09-12T04:03:00.243Z,6.5
2022-09-12T04:04:00.703Z,6.9
2022-09-12T04:05:00.648Z,6.9
2022-09-12T04:06:00.215Z,6.9
2022-09-12T04:07:00.239Z,6.9
2022-09-12T04:08:00.484Z,6.9
2022-09-12T04:09:00.224Z,6.9
2022-09-12T04:10:00.281Z,6.9
2022-09-12T04:11:02.454Z,6.9
2022-09-12T04:12:00.457Z,6.9
2022-09-12T04:13:00.271Z,6.9
2022-09-12T04:14:00.263Z,6.7
2022-09-12T04:15:00.234Z,6.7
2022-09-12T04:16:00.651Z,6.7
2022-09-12T04:17:00.365Z,6.7
2022-09-12T04:18:05.019Z,6.7
2022-09-12T04:19:00.281Z,7.0
2022-09-12T04:20:00.410Z,7.0
2022-09-12T04:21:10.525Z,7.0
2022-09-12T04:22:00.300Z,7.0
2022-09-12T04:23:00.241Z,7.0
2022-09-12T04:24:00.547Z,7.0
2022-09-12T04:25:00.630Z,7.0
2022-09-12T04:26:02.332Z,7.0
2022-09-12T04:27:02.037Z,7.0
2022-09-12T04:28:00.397Z,7.0
2022-09-12T04:29:00.226Z,7.4
2022-09-12T04:30:00.509Z,7.4
2022-09-12T04:31:01.744Z,7.4
2022-09-12T04:32:00.421Z,7.4
2022-09-12T04:33:00.219Z,7.4
2022-09-12T04:34:00.502Z,7.2
2022-09-12T04:35:00.230Z,7.2
2022-09-12T04:36:11.759Z,7.2
2022-09-12T04:37:00.289Z,7.2
2022-09-12T04:38:00.259Z,7.2
2022-09-12T04:39:01.658Z,6.6
2022-09-12T04:40:00.419Z,6.6
2022-09-12T04:41:00.633Z,6.6
2022-09-12T04:42:00.216Z,6.6
2022-09-12T04:43:00.267Z,6.6
2022-09-12T04:44:03.491Z,6.7
2022-09-12T04:45:00.283Z,6.7
2022-09-12T04:46:05.371Z,6.7
2022-09-12T04:47:00.253Z,6.7
2022-09-12T04:48:00.391Z,6.7
2022-09-12T04:49:00.233Z,6.8
2022-09-12T04:50:00.261Z,6.8
2022-09-12T04:51:09.952Z,6.8
2022-09-12T04:52:00.344Z,6.8
2022-09-12T04:53:00.271Z,6.8
2022-09-12T04:54:04.231Z,6.9
2022-09-12T04:55:00.234Z,6.9
2022-09-12T04:56:02.991Z,6.9
2022-09-12T04:57:00.227Z,6.9
2022-09-12T04:58:00.963Z,6.9
2022-09-12T04:59:00.568Z,7.0
2022-09-12T05:00:06.515Z,7.0
2022-09-12T05:01:10.300Z,7.0
2022-09-12T05:02:00.290Z,7.0
2022-09-12T05:03:00.230Z,7.0
2022-09-12T05:04:00.892Z,7.7
2022-09-12T05:05:00.247Z,7.7
2022-09-12T05:06:02.558Z,7.7
2022-09-12T05:07:00.492Z,7.7
2022-09-12T05:08:00.362Z,7.7
2022-09-12T05:09:02.260Z,8.2
2022-09-12T05:10:00.507Z,8.2
2022-09-12T05:11:02.740Z,8.2
2022-09-12T05:12:04.274Z,8.2
2022-09-12T05:13:00.249Z,8.2
2022-09-12T05:14:00.481Z,7.6
2022-09-12T05:15:00.299Z,7.6
2022-09-12T05:16:03.740Z,7.6
2022-09-12T05:17:00.930Z,7.6
2022-09-12T05:18:00.222Z,7.6
2022-09-12T05:19:00.390Z,7.6
2022-09-12T05:20:00.303Z,7.6
2022-09-12T05:21:01.771Z,7.6
2022-09-12T05:22:00.258Z,7.6
2022-09-12T05:23:00.218Z,7.6
2022-09-12T05:24:00.361Z,7.5
2022-09-12T05:25:00.253Z,7.5
2022-09-12T05:26:02.292Z,7.5
2022-09-12T05:27:00.219Z,7.5
2022-09-12T05:28:00.394Z,7.5
2022-09-12T05:29:02.821Z,7.4
2022-09-12T05:30:00.235Z,7.4
2022-09-12T05:31:04.021Z,7.4
2022-09-12T05:32:00.933Z,7.4
2022-09-12T05:33:00.214Z,7.4
2022-09-12T05:34:00.572Z,7.1
2022-09-12T05:35:00.223Z,7.1
2022-09-12T05:36:00.797Z,7.1
2022-09-12T05:37:00.258Z,7.1
2022-09-12T05:38:00.215Z,7.1
2022-09-12T05:39:00.496Z,7.3
2022-09-12T05:40:00.386Z,7.3
2022-09-12T05:41:01.833Z,7.3
2022-09-12T05:42:00.233Z,7.3
2022-09-12T05:43:00.267Z,7.3
2022-09-12T05:44:03.342Z,7.2
2022-09-12T05:45:00.239Z,7.2
2022-09-12T05:46:05.414Z,7.2
2022-09-12T05:47:00.210Z,7.2
2022-09-12T05:48:00.409Z,7.2
2022-09-12T05:49:02.675Z,7.5
2022-09-12T05:50:00.233Z,7.5
2022-09-12T05:51:03.080Z,7.5
2022-09-12T05:52:00.373Z,7.5
2022-09-12T05:53:00.320Z,7.5
2022-09-12T05:54:02.044Z,7.4
2022-09-12T05:55:00.233Z,7.4
2022-09-12T05:56:11.242Z,7.4
2022-09-12T05:57:00.248Z,7.4
2022-09-12T05:58:00.237Z,7.4
2022-09-12T05:59:03.181Z,6.4
2022-09-12T06:00:00.351Z,6.4
2022-09-12T06:01:02.271Z,6.4
2022-09-12T06:02:00.262Z,6.4
2022-09-12T06:03:00.227Z,6.4
2022-09-12T06:04:03.482Z,6.0
2022-09-12T06:05:00.237Z,6.0
2022-09-12T06:06:00.967Z,6.0
2022-09-12T06:07:00.220Z,6.0
2022-09-12T06:08:00.373Z,6.0
2022-09-12T06:09:02.395Z,6.1
2022-09-12T06:10:00.430Z,6.1
2022-09-12T06:11:02.338Z,6.1
2022-09-12T06:12:00.344Z,6.1
2022-09-12T06:13:00.247Z,6.1
2022-09-12T06:14:00.623Z,6.2
2022-09-12T06:15:00.215Z,6.2
2022-09-12T06:16:02.738Z,6.2
2022-09-12T06:17:00.248Z,6.2
2022-09-12T06:18:00.211Z,6.2
2022-09-12T06:19:03.817Z,5.5
2022-09-12T06:20:00.430Z,5.5
2022-09-12T06:21:03.646Z,5.5
2022-09-12T06:22:00.225Z,5.5
2022-09-12T06:23:00.211Z,5.5
2022-09-12T06:24:00.967Z,16.6
2022-09-12T06:25:00.283Z,16.6
2022-09-12T06:26:00.435Z,16.6
2022-09-12T06:27:00.240Z,16.6
2022-09-12T06:28:00.323Z,16.6
2022-09-12T06:29:00.976Z,6.2
2022-09-12T06:30:00.264Z,6.2
2022-09-12T06:31:02.839Z,6.2
2022-09-12T06:32:00.344Z,6.2
2022-09-12T06:33:00.240Z,6.2
2022-09-12T06:34:02.347Z,5.0
2022-09-12T06:35:00.287Z,5.0
2022-09-12T06:36:04.897Z,5.0
2022-09-12T06:37:00.217Z,5.0
2022-09-12T06:38:00.229Z,5.0
2022-09-12T06:39:04.202Z,5.0
2022-09-12T06:40:01.906Z,5.0
2022-09-12T06:41:03.750Z,5.0
2022-09-12T06:42:00.206Z,5.0
2022-09-12T06:43:00.377Z,5.0
2022-09-12T06:44:00.808Z,5.0
2022-09-12T06:45:00.242Z,5.0
2022-09-12T06:46:01.299Z,5.0
2022-09-12T06:47:00.215Z,5.0
2022-09-12T06:48:00.367Z,5.0
2022-09-12T06:49:00.247Z,4.4
2022-09-12T06:50:00.211Z,4.4
2022-09-12T06:51:03.516Z,4.4
2022-09-12T06:52:00.394Z,4.4
2022-09-12T06:53:00.228Z,4.4
2022-09-12T06:54:00.225Z,4.5
2022-09-12T06:55:00.224Z,4.5
2022-09-12T06:56:05.745Z,4.5
2022-09-12T06:57:00.220Z,4.5
2022-09-12T06:58:00.288Z,4.5
2022-09-12T06:59:00.215Z,4.4
2022-09-12T07:00:00.345Z,4.4
2022-09-12T07:01:01.827Z,4.4
2022-09-12T07:02:00.241Z,4.4
2022-09-12T07:03:00.215Z,4.4
2022-09-12T07:04:02.054Z,4.5
2022-09-12T07:05:00.221Z,4.5
2022-09-12T07:06:05.204Z,4.5
2022-09-12T07:07:00.213Z,4.5
2022-09-12T07:08:00.265Z,4.5
2022-09-12T07:09:02.610Z,3.8
2022-09-12T07:10:00.267Z,3.8
2022-09-12T07:11:07.973Z,3.8
2022-09-12T07:12:00.315Z,3.8
2022-09-12T07:13:00.240Z,3.8
2022-09-12T07:14:02.411Z,4.0
2022-09-12T07:15:00.227Z,4.0
2022-09-12T07:16:01.166Z,4.0
2022-09-12T07:17:00.271Z,4.0
2022-09-12T07:18:00.211Z,4.0
2022-09-12T07:19:02.705Z,9.1
2022-09-12T07:20:00.407Z,9.1
2022-09-12T07:21:00.638Z,9.1
2022-09-12T07:22:00.285Z,9.1
2022-09-12T07:23:00.211Z,9.1
2022-09-12T07:24:00.327Z,3.8
2022-09-12T07:25:00.253Z,3.8
2022-09-12T07:26:01.078Z,3.8
2022-09-12T07:27:00.227Z,3.8
2022-09-12T07:28:00.305Z,3.8
2022-09-12T07:29:19.042Z,4.9
2022-09-12T07:30:00.224Z,4.9
2022-09-12T07:31:11.652Z,4.9
2022-09-12T07:32:00.287Z,4.9
2022-09-12T07:33:00.213Z,4.9
2022-09-12T07:34:03.534Z,3.8
2022-09-12T07:35:00.243Z,3.8
2022-09-12T07:36:02.246Z,3.8
2022-09-12T07:37:00.259Z,3.8
2022-09-12T07:38:00.233Z,3.8
2022-09-12T07:39:00.572Z,6.2
2022-09-12T07:40:00.683Z,6.2
2022-09-12T07:41:00.232Z,6.2
2022-09-12T07:42:00.307Z,6.2
2022-09-12T07:43:00.238Z,6.2
2022-09-12T07:44:01.890Z,4.2
2022-09-12T07:45:00.249Z,4.2
2022-09-12T07:46:00.273Z,4.2
2022-09-12T07:47:00.258Z,4.2
2022-09-12T07:48:00.383Z,4.2
2022-09-12T07:49:00.616Z,4.4
2022-09-12T07:50:00.227Z,4.4
2022-09-12T07:51:02.217Z,4.4
2022-09-12T07:52:00.438Z,4.4
2022-09-12T07:53:00.231Z,4.4
2022-09-12T07:54:00.253Z,3.7
2022-09-12T07:55:00.222Z,3.7
2022-09-12T07:56:00.580Z,3.7
2022-09-12T07:57:00.247Z,3.7
2022-09-12T07:58:00.229Z,3.7
2022-09-12T07:59:00.418Z,3.7
2022-09-12T08:00:00.325Z,3.7
2022-09-12T08:01:02.840Z,3.7
2022-09-12T08:02:00.285Z,3.7
2022-09-12T08:03:00.932Z,3.7
2022-09-12T08:04:00.575Z,4.5
2022-09-12T08:05:00.237Z,4.5
2022-09-12T08:06:03.401Z,4.5
2022-09-12T08:07:00.214Z,4.5
2022-09-12T08:08:00.280Z,4.5
2022-09-12T08:09:00.741Z,3.8
2022-09-12T08:10:00.227Z,3.8
2022-09-12T08:11:02.434Z,3.8
2022-09-12T08:12:00.484Z,3.8
2022-09-12T08:13:00.251Z,3.8
2022-09-12T08:14:00.284Z,4.1
2022-09-12T08:15:00.261Z,4.1
2022-09-12T08:16:05.388Z,4.1
2022-09-12T08:17:00.230Z,4.1
2022-09-12T08:18:00.219Z,4.1
2022-09-12T08:19:02.378Z,3.9
2022-09-12T08:20:00.369Z,3.9
2022-09-12T08:21:03.054Z,3.9
2022-09-12T08:22:00.218Z,3.9
2022-09-12T08:23:00.234Z,3.9
2022-09-12T08:24:03.429Z,4.1
2022-09-12T08:25:00.236Z,4.1
2022-09-12T08:26:05.943Z,4.1
2022-09-12T08:27:00.219Z,4.1
2022-09-12T08:28:00.384Z,4.1
2022-09-12T08:29:00.625Z,3.9
2022-09-12T08:30:00.258Z,3.9
2022-09-12T08:31:03.332Z,3.9
2022-09-12T08:32:00.253Z,3.9
2022-09-12T08:33:00.223Z,3.9
2022-09-12T08:34:00.231Z,4.1
2022-09-12T08:35:00.288Z,4.1
2022-09-12T08:36:09.358Z,4.1
2022-09-12T08:37:00.225Z,4.1
2022-09-12T08:38:00.247Z,4.1
2022-09-12T08:39:03.460Z,4.1
2022-09-12T08:40:00.444Z,4.1
2022-09-12T08:41:18.457Z,4.1
2022-09-12T08:42:02.030Z,4.1
2022-09-12T08:43:16.656Z,4.1
2022-09-12T08:44:09.556Z,4.1
2022-09-12T08:45:03.487Z,4.1
2022-09-12T08:46:10.455Z,4.1
2022-09-12T08:47:08.793Z,4.1
2022-09-12T08:48:02.450Z,4.1
2022-09-12T08:49:02.915Z,4.3
2022-09-12T08:50:04.224Z,4.3
2022-09-12T08:51:00.924Z,4.3
2022-09-12T08:52:10.212Z,4.3
2022-09-12T08:53:08.975Z,4.3
2022-09-12T08:54:03.432Z,3.9
2022-09-12T08:55:02.495Z,3.9
2022-09-12T08:56:01.941Z,3.9
2022-09-12T08:57:03.061Z,3.9
2022-09-12T08:58:11.636Z,3.9
2022-09-12T08:59:00.310Z,4.2
2022-09-12T09:00:01.642Z,4.2
2022-09-12T09:01:20.167Z,4.2
2022-09-12T09:02:01.584Z,4.2
2022-09-12T09:03:01.233Z,4.2
2022-09-12T09:04:15.766Z,3.9
2022-09-12T09:05:12.835Z,3.9
2022-09-12T09:06:20.123Z,3.9
2022-09-12T09:07:11.193Z,3.9
2022-09-12T09:08:19.448Z,3.7
2022-09-12T09:09:08.421Z,3.7
2022-09-12T09:10:10.933Z,3.7
2022-09-12T09:11:17.684Z,3.7
2022-09-12T09:12:03.503Z,3.7
2022-09-12T09:13:11.182Z,3.7
2022-09-12T09:14:10.232Z,5.1
2022-09-12T09:15:12.080Z,5.1
2022-09-12T09:16:11.786Z,5.1
2022-09-12T09:17:02.193Z,5.1
2022-09-12T09:18:07.234Z,5.1
2022-09-12T09:19:04.797Z,4.0
2022-09-12T09:20:08.973Z,4.0
2022-09-12T09:21:10.529Z,4.0
2022-09-12T09:22:06.486Z,4.0
2022-09-12T09:23:12.155Z,4.0
2022-09-12T09:24:05.095Z,4.7
2022-09-12T09:25:06.574Z,4.7
2022-09-12T09:26:20.148Z,4.7
2022-09-12T09:27:14.315Z,4.7
2022-09-12T09:28:08.529Z,4.7
2022-09-12T09:29:15.586Z,4.3
2022-09-12T09:30:01.173Z,4.3
2022-09-12T09:31:00.401Z,4.3
2022-09-12T09:32:04.237Z,4.3
2022-09-12T09:33:03.439Z,4.3
2022-09-12T09:34:00.494Z,5.1
2022-09-12T09:35:10.868Z,5.1
2022-09-12T09:36:15.299Z,5.1
2022-09-12T09:37:00.217Z,5.1
2022-09-12T09:38:10.732Z,5.1
2022-09-12T09:39:05.087Z,4.5
2022-09-12T09:40:16.835Z,4.5
2022-09-12T09:41:12.740Z,4.5
2022-09-12T09:42:16.928Z,4.5
2022-09-12T09:43:08.049Z,4.5
2022-09-12T09:44:01.003Z,4.4
2022-09-12T09:45:11.110Z,4.4
2022-09-12T09:46:00.469Z,4.4
2022-09-12T09:47:00.780Z,4.4
2022-09-12T09:48:10.245Z,4.4
2022-09-12T09:49:02.847Z,4.7
2022-09-12T09:50:00.248Z,4.7
2022-09-12T09:51:02.776Z,4.7
2022-09-12T09:52:01.474Z,4.7
2022-09-12T09:53:02.431Z,4.7
2022-09-12T09:54:08.725Z,4.5
2022-09-12T09:55:01.089Z,4.5
2022-09-12T09:56:04.691Z,4.5
2022-09-12T09:57:00.356Z,4.5
2022-09-12T09:58:00.223Z,4.5
2022-09-12T09:59:13.964Z,4.3
2022-09-12T10:00:20.146Z,4.3
2022-09-12T10:01:02.311Z,4.3
2022-09-12T10:02:12.604Z,4.3
2022-09-12T10:03:02.833Z,4.3
2022-09-12T10:04:00.350Z,4.3
2022-09-12T10:05:00.393Z,4.3
2022-09-12T10:06:20.125Z,4.3
2022-09-12T10:07:02.407Z,4.3
2022-09-12T10:08:01.447Z,4.3
2022-09-12T10:09:18.874Z,4.2
2022-09-12T10:10:13.452Z,4.2
2022-09-12T10:11:04.114Z,4.2
2022-09-12T10:12:20.127Z,4.2
2022-09-12T10:13:18.915Z,3.7
2022-09-12T10:14:00.305Z,3.7
2022-09-12T10:15:03.320Z,3.7
2022-09-12T10:16:05.305Z,3.7
2022-09-12T10:17:02.168Z,3.7
2022-09-12T10:18:00.369Z,3.7
2022-09-12T10:19:01.917Z,3.9
2022-09-12T10:20:19.880Z,3.9
2022-09-12T10:21:00.820Z,3.9
2022-09-12T10:22:00.980Z,3.9
2022-09-12T10:23:13.267Z,3.9
2022-09-12T10:24:04.000Z,4.1
2022-09-12T10:25:00.465Z,4.1
2022-09-12T10:26:02.342Z,4.1
2022-09-12T10:27:11.200Z,4.1
2022-09-12T10:28:20.122Z,4.1
2022-09-12T10:29:09.674Z,4.1
2022-09-12T10:30:06.093Z,4.1
2022-09-12T10:31:00.850Z,4.1
2022-09-12T10:32:04.882Z,4.1
2022-09-12T10:33:07.988Z,4.1
2022-09-12T10:34:00.486Z,4.0
2022-09-12T10:35:02.956Z,4.0
2022-09-12T10:36:01.248Z,4.0
2022-09-12T10:37:03.530Z,4.0
2022-09-12T10:38:04.206Z,4.0
2022-09-12T10:39:01.610Z,4.1
2022-09-12T10:40:01.739Z,4.1
2022-09-12T10:41:09.589Z,4.1
2022-09-12T10:42:01.039Z,4.1
2022-09-12T10:43:01.488Z,4.1
2022-09-12T10:44:20.151Z,3.9
2022-09-12T10:45:00.530Z,3.9
2022-09-12T10:46:17.614Z,3.9
2022-09-12T10:47:20.158Z,3.9
2022-09-12T10:48:12.032Z,3.9
2022-09-12T10:49:13.062Z,3.5
2022-09-12T10:50:22.900Z,3.5
2022-09-12T10:51:01.599Z,3.5
2022-09-12T10:52:20.126Z,3.5
2022-09-12T10:53:12.443Z,3.5
2022-09-12T10:54:02.611Z,4.0
2022-09-12T10:55:00.291Z,4.0
2022-09-12T10:56:08.857Z,4.0
2022-09-12T10:57:13.664Z,4.0
2022-09-12T10:58:12.138Z,4.0
2022-09-12T10:59:11.169Z,3.9
2022-09-12T11:00:11.655Z,3.9
2022-09-12T11:01:13.878Z,3.9
2022-09-12T11:02:13.492Z,3.9
2022-09-12T11:03:08.034Z,3.9
2022-09-12T11:04:20.124Z,4.1
2022-09-12T11:05:22.574Z,4.1
2022-09-12T11:06:00.482Z,4.1
2022-09-12T11:07:09.323Z,4.1
2022-09-12T11:08:13.416Z,4.1
2022-09-12T11:09:08.837Z,4.0
2022-09-12T11:10:18.363Z,4.0
2022-09-12T11:11:20.123Z,4.0
2022-09-12T11:12:00.206Z,4.0
2022-09-12T11:13:18.060Z,3.6
2022-09-12T11:14:20.120Z,3.6
2022-09-12T11:15:13.576Z,3.6
2022-09-12T11:16:17.540Z,3.6
2022-09-12T11:17:20.120Z,3.6
2022-09-12T11:18:12.282Z,3.6
2022-09-12T11:19:08.745Z,3.6
2022-09-12T11:20:13.934Z,3.6
2022-09-12T11:21:11.403Z,3.6
2022-09-12T11:22:13.427Z,3.6
2022-09-12T11:23:20.126Z,3.8
2022-09-12T11:24:10.186Z,3.8
2022-09-12T11:25:11.196Z,3.8
2022-09-12T11:26:20.125Z,3.8
2022-09-12T11:27:17.675Z,3.8
2022-09-12T11:28:17.777Z,3.8
2022-09-12T11:29:04.487Z,3.8
2022-09-12T11:30:07.581Z,3.8
2022-09-12T11:31:20.124Z,3.8
2022-09-12T11:32:13.427Z,3.8
2022-09-12T11:33:03.468Z,3.8
2022-09-12T11:34:04.765Z,3.7
2022-09-12T11:35:12.798Z,3.7
2022-09-12T11:36:03.954Z,3.7
2022-09-12T11:37:20.120Z,3.7
2022-09-12T11:38:13.437Z,3.7
2022-09-12T11:39:10.802Z,3.8
2022-09-12T11:40:18.743Z,3.8
2022-09-12T11:41:05.020Z,3.8
2022-09-12T11:42:04.174Z,3.8
2022-09-12T11:43:11.066Z,3.8
2022-09-12T11:44:13.433Z,3.6
2022-09-12T11:45:11.656Z,3.6
2022-09-12T11:46:10.836Z,3.6
2022-09-12T11:47:05.283Z,3.6
2022-09-12T11:48:07.383Z,3.6
2022-09-12T11:49:05.391Z,3.7
2022-09-12T11:50:04.377Z,3.7
2022-09-12T11:51:03.975Z,3.7
2022-09-12T11:52:12.301Z,3.7
2022-09-12T11:53:14.056Z,3.7
2022-09-12T11:54:08.284Z,3.7
2022-09-12T11:55:05.667Z,3.7
2022-09-12T11:56:09.023Z,3.7
2022-09-12T11:57:13.448Z,3.7
2022-09-12T11:58:00.223Z,3.7
2022-09-12T11:59:08.933Z,4.1
2022-09-12T12:00:04.566Z,4.1
2022-09-12T12:01:20.129Z,4.1
2022-09-12T12:02:02.789Z,4.1
2022-09-12T12:03:10.292Z,4.1
2022-09-12T12:04:11.644Z,3.7
2022-09-12T12:05:08.741Z,3.7
2022-09-12T12:06:03.253Z,3.7
2022-09-12T12:07:04.434Z,3.7
2022-09-12T12:08:03.944Z,3.7
2022-09-12T12:09:03.530Z,4.1
2022-09-12T12:10:00.587Z,4.1
2022-09-12T12:11:02.376Z,4.1
2022-09-12T12:12:06.721Z,4.1
2022-09-12T12:13:04.252Z,4.1
2022-09-12T12:14:06.697Z,3.7
2022-09-12T12:15:00.901Z,3.7
2022-09-12T12:16:18.254Z,3.7
2022-09-12T12:17:00.342Z,3.7
2022-09-12T12:18:02.239Z,3.7
2022-09-12T12:19:06.408Z,3.8
2022-09-12T12:20:07.409Z,3.8
2022-09-12T12:21:20.127Z,3.8
2022-09-12T12:22:11.190Z,3.8
2022-09-12T12:23:00.413Z,3.8
2022-09-12T12:24:07.669Z,3.9
2022-09-12T12:25:05.506Z,3.9
2022-09-12T12:26:02.562Z,3.9
2022-09-12T12:27:01.898Z,3.9
2022-09-12T12:28:00.379Z,3.9
2022-09-12T12:29:00.342Z,3.5
2022-09-12T12:30:00.229Z,3.5
2022-09-12T12:31:01.329Z,3.5
2022-09-12T12:32:00.200Z,3.5
2022-09-12T12:33:04.378Z,3.5
2022-09-12T12:34:03.033Z,3.7
2022-09-12T12:35:11.379Z,3.7
2022-09-12T12:36:02.964Z,3.7
2022-09-12T12:37:20.133Z,3.7
2022-09-12T12:38:01.412Z,3.7
2022-09-12T12:39:20.128Z,4.9
2022-09-12T12:40:18.773Z,4.9
2022-09-12T12:41:17.535Z,4.9
2022-09-12T12:42:00.817Z,4.9
2022-09-12T12:43:03.618Z,4.9
2022-09-12T12:44:20.124Z,3.7
2022-09-12T12:45:12.868Z,3.7
2022-09-12T12:46:02.747Z,3.7
2022-09-12T12:47:20.061Z,3.7
2022-09-12T12:48:08.976Z,3.7
2022-09-12T12:49:03.493Z,3.9
2022-09-12T12:50:05.157Z,3.9
2022-09-12T12:51:15.622Z,3.9
2022-09-12T12:52:00.470Z,3.9
2022-09-12T12:53:03.845Z,3.9
2022-09-12T12:54:04.105Z,3.6
2022-09-12T12:55:02.755Z,3.6
2022-09-12T12:56:00.418Z,3.6
2022-09-12T12:57:03.857Z,3.6
2022-09-12T12:58:01.856Z,3.6
2022-09-12T12:59:04.190Z,3.9
2022-09-12T13:00:04.378Z,3.9
2022-09-12T13:01:08.474Z,3.9
2022-09-12T13:02:00.467Z,3.9
2022-09-12T13:03:10.092Z,3.9
2022-09-12T13:04:04.659Z,4.4
2022-09-12T13:05:04.218Z,4.4
2022-09-12T13:06:03.897Z,4.4
2022-09-12T13:07:08.255Z,4.4
2022-09-12T13:08:06.119Z,4.4
2022-09-12T13:09:06.506Z,3.9
2022-09-12T13:10:01.301Z,3.9
2022-09-12T13:11:07.373Z,3.9
2022-09-12T13:12:04.303Z,3.9
2022-09-12T13:13:03.087Z,3.9
2022-09-12T13:14:04.895Z,4.0
2022-09-12T13:15:02.513Z,4.0
2022-09-12T13:16:00.420Z,4.0
2022-09-12T13:17:04.506Z,4.0
2022-09-12T13:18:03.301Z,4.0
2022-09-12T13:19:05.356Z,3.7
2022-09-12T13:20:26.090Z,3.7
2022-09-12T13:21:07.713Z,3.7
2022-09-12T13:22:03.560Z,3.7
2022-09-12T13:23:00.429Z,3.7
2022-09-12T13:24:12.495Z,6.3
2022-09-12T13:25:00.320Z,6.3
2022-09-12T13:26:01.326Z,6.3
2022-09-12T13:27:00.239Z,6.3
2022-09-12T13:28:03.114Z,6.3
2022-09-12T13:29:09.278Z,4.4
2022-09-12T13:30:14.128Z,4.4
2022-09-12T13:31:02.256Z,4.4
2022-09-12T13:32:02.012Z,4.4
2022-09-12T13:33:10.469Z,4.4
2022-09-12T13:34:04.689Z,3.9
2022-09-12T13:35:12.356Z,3.9
2022-09-12T13:36:13.460Z,3.9
2022-09-12T13:37:20.133Z,3.9
2022-09-12T13:38:16.669Z,3.7
2022-09-12T13:39:03.473Z,3.7
2022-09-12T13:40:20.193Z,3.7
2022-09-12T13:41:11.195Z,3.7
2022-09-12T13:42:17.566Z,3.7
2022-09-12T13:43:14.003Z,3.5
2022-09-12T13:44:01.378Z,3.5
2022-09-12T13:45:10.212Z,3.5